KAMAKCAO

Guest
Details From KAMA - Rick Husband Amarillo Intl
To KCAO - CLAYTON MUNI AIRPARK
Flight Number -
Tags generated
Created
Modified
Stats Distance 102 nm / 189 km
Max Altitude 4,900 ft / 1,494 m
Waypoints 3
Social Downloads 1
Likes 0
Share VATSIM

Download

Looking for another format? Having issues loading an existing format? Contact us
Advertisement - Login to hide

Notes

Basic altitude profile: - Ascent Rate: 2000ft/min - Ascent Speed: 190kts - Cruise Altitude: 13000ft - Cruise Speed: 220kts - Descent Rate: 1800ft/min - Descent Speed: 170kts Options: - Use NATs: yes - Use PACOTS: yes - Use low airways: yes - Use high airways: yes

Route

KAMA LANTT KCAO

ID Type Via Altitude Latitude Longitude Leg Dist Tot Dist Heading (true) Name
O KAMA APT - 0 ft / 0 m 35.21985˚ -101.70220˚ - 0 nm - Rick Husband Amarillo Intl
LANTT FIX - 4,900 ft / 1,494 m 35.40555˚ -101.86547˚ 13 nm 13 nm 324° / 324° -
O KCAO APT - 0 ft / 0 m 36.44613˚ -103.14928˚ 88 nm 102 nm 315° / 315° CLAYTON MUNI AIRPARK

Altitude Profile

Advertisement - Login to hide

KAMA

Details ICAO KAMA (AMA)
Name Rick Husband Amarillo Intl
Region United States
Timezone America/Chicago (UTC-6.0)
Stats Elevation 3,607 ft / 1,099 m (AMSL)
Location 35.219850° -101.702200°
Runways 2
Magnetic Variation 6.161° E

METAR

KAMA 171953Z 34012KT 10SM CLR 09/M02 A2998 RMK AO2 SLP147 T00891022

Decode

TAF

TAF AMD KAMA 171858Z 1719/1818 35015KT P6SM BKN100 FM180100 07005KT P6SM SCT150 FM180900 21007KT 4SM BR BKN100 FM181400 19010KT P6SM BKN100

Decode

Departure Runways

ID Width Length Bearing (true) Bearing (mag) Surface Threshold Offset Overrun Length
04 200 ft / 61 m 13,502 ft / 4,115 m 45.85° 39.69° Concrete 0 ft / 0 m 1,001 ft / 305 m
13 151 ft / 46 m 7,904 ft / 2,409 m 137.58° 131.42° Concrete 0 ft / 0 m 1,250 ft / 381 m
22 200 ft / 61 m 13,502 ft / 4,115 m 225.87° 219.71° Concrete 0 ft / 0 m 1,001 ft / 305 m
31 151 ft / 46 m 7,904 ft / 2,409 m 317.60° 311.44° Concrete 0 ft / 0 m 0 ft / 0 m

KCAO

Details ICAO KCAO
Name CLAYTON MUNI AIRPARK
Region United States
Timezone America/Denver (UTC-7.0)
Stats Elevation 4,965 ft / 1,513 m (AMSL)
Location 36.446126° -103.149282°
Runways 2
Magnetic Variation 7.002° E

METAR

KCAO 171955Z AUTO 03010KT 10SM CLR 06/M04 A2994 RMK AO2 SLP141 T00561039 $

Decode

TAF

Not found

Destination Runways

ID Width Length Bearing (true) Bearing (mag) Surface Threshold Offset Overrun Length
02 75 ft / 23 m 6,308 ft / 1,923 m 30.11° 23.11° Asphalt 0 ft / 0 m 0 ft / 0 m
12 60 ft / 18 m 4,098 ft / 1,249 m 130.33° 123.33° Asphalt 0 ft / 0 m 0 ft / 0 m
20 75 ft / 23 m 6,308 ft / 1,923 m 210.12° 203.12° Asphalt 0 ft / 0 m 0 ft / 0 m
30 60 ft / 18 m 4,098 ft / 1,249 m 310.34° 303.34° Asphalt 0 ft / 0 m 0 ft / 0 m

Popular Alternatives